Llano — WDF9589 — position and weather

sailwx.info

Track history (hours):
 
Tides and Currents Weather Stations Pressure Air Temp Water Temp Dewpoint Dewpoint Depression Visibility Wind Speed Wind Dir Waves Ship Positions

Llano

Owner: Kirby Inland Marine LP, Houton, TX. More information available from US FCC via Universal Licensing System and Coast Guard Vessel Documentation Center.

Last reported at 2017-Oct-20 06:01 UTC. Time now 2017-Oct-20 07:00 UTC.
Position N 29°44' W 095°08'.

Length 119 m; draft 3 m.

Type: . MMSI: 367506740.

Date/timePositionNaut miles runAvg speedWind from/ knotsBaromVisibWave heightAir tempDewpointWater temp
2017-Oct-20 06:01N 29°44' W 095°08'0 0.0
2017-Oct-20 05:58N 29°44' W 095°08'0 0.0
2017-Oct-20 05:19N 29°44' W 095°08'0 0.0
2017-Oct-20 04:58N 29°44' W 095°08'0 0.0
2017-Oct-20 04:25N 29°44' W 095°08'0 0.0
2017-Oct-20 03:58N 29°44' W 095°08'0 0.0
2017-Oct-20 03:28N 29°44' W 095°08'0 0.0
2017-Oct-20 02:58N 29°44' W 095°08'0 0.0
2017-Oct-20 02:07N 29°44' W 095°08'0 0.0
2017-Oct-20 01:49N 29°44' W 095°08'0 0.0
2017-Oct-20 01:25N 29°44' W 095°08'0 0.0
2017-Oct-20 00:58N 29°44' W 095°08'0 0.0
2017-Oct-20 00:28N 29°44' W 095°08'0 0.0
2017-Oct-19 23:58N 29°44' W 095°08'0 0.0
2017-Oct-19 23:19N 29°44' W 095°08'0 0.0
2017-Oct-19 22:58N 29°44' W 095°08'0 0.0
2017-Oct-19 22:22N 29°44' W 095°08'0 0.0
2017-Oct-19 21:58N 29°44' W 095°08'0 0.0
2017-Oct-19 21:28N 29°44' W 095°08'0 0.0
2017-Oct-19 20:58N 29°44' W 095°08'0 0.0
2017-Oct-19 20:30N 29°44' W 095°08'1 1.8
2017-Oct-19 19:47N 29°44' W 095°07'3 5.5
2017-Oct-19 19:15N 29°44' W 095°03'2 7.4
2017-Oct-19 18:56N 29°43' W 095°01'3 7.4
2017-Oct-19 18:31N 29°41' W 094°59'4 8.5
2017-Oct-19 18:00N 29°37' W 094°57'4 8.5
2017-Oct-19 17:30N 29°33' W 094°54'69 5.6
2017-Oct-19 04:59N 30°03' W 093°42'3 6.9
2017-Oct-19 04:30N 30°04' W 093°39'3 6.0
2017-Oct-19 03:59N 30°04' W 093°35'3 5.8
2017-Oct-19 03:30N 30°04' W 093°32'3 5.9
2017-Oct-19 03:01N 30°04' W 093°28'3 5.9
2017-Oct-19 02:31N 30°04' W 093°25'3 5.6
2017-Oct-19 02:01N 30°04' W 093°22'2 4.0
2017-Oct-19 01:31N 30°05' W 093°20'2 4.1
2017-Oct-19 01:01N 30°05' W 093°18'1 2.5
2017-Oct-19 00:31N 30°05' W 093°17'0 0.4
2017-Oct-19 00:01N 30°04' W 093°16'0 0.1
2017-Oct-18 23:30N 30°04' W 093°16'0 0.1
2017-Oct-18 23:01N 30°04' W 093°16'0 0.0
2017-Oct-18 22:31N 30°04' W 093°16'0 0.0
2017-Oct-18 22:01N 30°04' W 093°16'0 0.0
2017-Oct-18 21:31N 30°04' W 093°16'0 0.0
2017-Oct-18 21:01N 30°04' W 093°16'0 0.0
2017-Oct-18 20:30N 30°04' W 093°16'0 0.0
2017-Oct-18 20:01N 30°04' W 093°16'0 0.0
2017-Oct-18 19:30N 30°04' W 093°16'0 0.0
2017-Oct-18 19:00N 30°04' W 093°16'0 0.0
2017-Oct-18 18:31N 30°04' W 093°16'0 0.0
2017-Oct-18 18:01N 30°04' W 093°16'0 0.0
2017-Oct-18 17:30N 30°04' W 093°16'0 0.0
2017-Oct-18 17:01N 30°04' W 093°16'0 0.0
2017-Oct-18 16:30N 30°04' W 093°16'0 0.0
2017-Oct-18 16:00N 30°04' W 093°16'0 0.0
2017-Oct-18 15:31N 30°04' W 093°16'0 0.0
2017-Oct-18 15:01N 30°04' W 093°16'0 0.0
2017-Oct-18 14:01N 30°04' W 093°16'0 0.2
2017-Oct-18 13:31N 30°04' W 093°16'2 4.5
2017-Oct-18 13:01N 30°02' W 093°15'2 4.1
2017-Oct-18 12:31N 30°01' W 093°14'2 4.5
2017-Oct-18 12:01N 29°59' W 093°12'3 5.4
2017-Oct-18 11:31N 29°57' W 093°10'2 4.9
2017-Oct-18 11:01N 29°56' W 093°08'41 5.2
2017-Oct-18 03:11N 29°51' W 092°21'1 5.3
2017-Oct-18 03:01N 29°51' W 092°20'3 5.2
2017-Oct-18 02:31N 29°49' W 092°17'3 5.7
2017-Oct-18 02:01N 29°48' W 092°15'2 4.3
2017-Oct-18 01:31N 29°47' W 092°12'1 2.9
2017-Oct-18 01:01N 29°47' W 092°11'2 3.7
2017-Oct-18 00:30N 29°47' W 092°09'3 5.5
2017-Oct-18 00:01N 29°48' W 092°06'59 5.5
2017-Oct-17 13:16N 29°37' W 090°59'2 6.4
2017-Oct-17 13:00N 29°35' W 090°58'3 6.4
2017-Oct-17 12:30N 29°33' W 090°55'3 6.6
2017-Oct-17 12:00N 29°32' W 090°51'3 6.5
2017-Oct-17 11:31N 29°32' W 090°48'3 5.4
2017-Oct-17 11:00N 29°33' W 090°45'2 4.7
2017-Oct-17 10:30N 29°35' W 090°43'2 4.2
2017-Oct-17 10:01N 29°37' W 090°41'1 2.4
2017-Oct-17 09:31N 29°36' W 090°40'1 2.4
2017-Oct-17 09:01N 29°36' W 090°39'2 4.7
2017-Oct-17 08:31N 29°35' W 090°36'1 2.3
2017-Oct-17 07:54N 29°34' W 090°35'1 2.6
2017-Oct-17 07:31N 29°34' W 090°34'3 5.5
2017-Oct-17 07:01N 29°34' W 090°31'3 6.1
2017-Oct-17 06:26N 29°33' W 090°27'3 4.9
2017-Oct-17 05:51N 29°34' W 090°23'2 5.3
2017-Oct-17 05:29N 29°35' W 090°22'1 2.5
2017-Oct-17 04:59N 29°36' W 090°22'  
2017-Oct-14 09:42N 29°60' W 090°26'0 0.0
2017-Oct-14 09:30N 29°60' W 090°26'0 0.0
2017-Oct-14 09:01N 29°60' W 090°26'4 0.2
2017-Oct-13 13:48N 29°57' W 090°23'24 2.6
2017-Oct-13 04:38N 29°33' W 090°24'2 7.9
2017-Oct-13 04:21N 29°33' W 090°27'3 7.9
2017-Oct-13 04:01N 29°34' W 090°30'4 7.4
2017-Oct-13 03:30N 29°34' W 090°34'3 5.7
2017-Oct-13 03:00N 29°35' W 090°37'4 7.1
2017-Oct-13 02:30N 29°36' W 090°41'2 3.8
2017-Oct-13 02:00N 29°35' W 090°43'3 5.4
2017-Oct-13 01:30N 29°33' W 090°45'4 7.1
2017-Oct-13 01:00N 29°32' W 090°49'63 6.4
2017-Oct-12 15:08N 29°50' W 091°58'1 7.7
2017-Oct-12 14:58N 29°50' W 091°59'4 7.8
2017-Oct-12 14:31N 29°49' W 092°03'4 7.8
2017-Oct-12 14:01N 29°47' W 092°07'4 7.2
2017-Oct-12 13:30N 29°47' W 092°12'2 3.2
2017-Oct-12 13:00N 29°48' W 092°13'1 1.2
2017-Oct-12 12:30N 29°48' W 092°14'0 0.0
2017-Oct-12 12:01N 29°48' W 092°14'0 0.0
2017-Oct-12 11:31N 29°48' W 092°14'0 0.1
2017-Oct-12 11:00N 29°48' W 092°14'1 1.9
2017-Oct-12 10:31N 29°48' W 092°15'0 0.5
2017-Oct-12 10:00N 29°48' W 092°15'0 0.7
2017-Oct-12 09:31N 29°48' W 092°16'0 0.5
2017-Oct-12 09:01N 29°49' W 092°16'0 0.3
2017-Oct-12 08:30N 29°49' W 092°16'0 0.6
2017-Oct-12 08:01N 29°49' W 092°16'0 1.0
2017-Oct-12 07:31N 29°49' W 092°17'3 5.6
2017-Oct-12 07:01N 29°50' W 092°20'37 6.5
2017-Oct-12 01:17N 29°56' W 093°02'2 6.9
2017-Oct-12 01:01N 29°56' W 093°04'3 6.9
2017-Oct-12 00:30N 29°56' W 093°08'3 6.3
2017-Oct-12 00:01N 29°58' W 093°11'3 6.9
2017-Oct-11 23:30N 30°01' W 093°14'3 6.1
2017-Oct-11 23:00N 30°03' W 093°16'3 5.6
2017-Oct-11 22:31N 30°05' W 093°18'1 2.2
2017-Oct-11 22:01N 30°06' W 093°18'0 0.6
2017-Oct-11 21:31N 30°06' W 093°19'0 0.1
2017-Oct-11 21:00N 30°06' W 093°19'0 0.0
2017-Oct-11 20:31N 30°06' W 093°19'0 0.0
2017-Oct-11 20:00N 30°06' W 093°19'0 0.0
2017-Oct-11 19:30N 30°06' W 093°19'0 0.0
2017-Oct-11 19:00N 30°06' W 093°19'0 0.0
2017-Oct-11 18:31N 30°06' W 093°19'0 0.0
2017-Oct-11 18:00N 30°06' W 093°19'0 0.0
2017-Oct-11 17:31N 30°06' W 093°19'0 0.1
2017-Oct-11 17:01N 30°06' W 093°19'89 4.9
2017-Oct-10 23:03N 29°30' W 094°52'1 9.4
2017-Oct-10 22:58N 29°30' W 094°53'4 9.3
2017-Oct-10 22:30N 29°34' W 094°55'4 9.0
2017-Oct-10 22:01N 29°38' W 094°58'5 9.2
2017-Oct-10 21:30N 29°42' W 095°00'4 8.0
2017-Oct-10 21:00N 29°44' W 095°04'2 3.6
2017-Oct-10 20:26N 29°45' W 095°06'0 0.0
2017-Oct-10 20:00N 29°45' W 095°06'  
Track history (hours):
 
Tides and Currents Weather Stations Pressure Air Temp Water Temp Dewpoint Dewpoint Depression Visibility Wind Speed Wind Dir Waves Ship Positions

Llano

Owner: Kirby Inland Marine LP, Houton, TX. More information available from US FCC via Universal Licensing System and Coast Guard Vessel Documentation Center.

Last reported at 2017-Oct-20 06:01 UTC. Time now 2017-Oct-20 07:00 UTC.
Position N 29°44' W 095°08'.

Length 119 m; draft 3 m.

Type: . MMSI: 367506740.

Date/timePositionNaut miles runAvg speedWind from/ knotsBaromVisibWave heightAir tempDewpointWater temp
2017-Oct-20 06:01N 29°44' W 095°08'0 0.0
2017-Oct-20 05:58N 29°44' W 095°08'0 0.0
2017-Oct-20 05:19N 29°44' W 095°08'0 0.0
2017-Oct-20 04:58N 29°44' W 095°08'0 0.0
2017-Oct-20 04:25N 29°44' W 095°08'0 0.0
2017-Oct-20 03:58N 29°44' W 095°08'0 0.0
2017-Oct-20 03:28N 29°44' W 095°08'0 0.0
2017-Oct-20 02:58N 29°44' W 095°08'0 0.0
2017-Oct-20 02:07N 29°44' W 095°08'0 0.0
2017-Oct-20 01:49N 29°44' W 095°08'0 0.0
2017-Oct-20 01:25N 29°44' W 095°08'0 0.0
2017-Oct-20 00:58N 29°44' W 095°08'0 0.0
2017-Oct-20 00:28N 29°44' W 095°08'0 0.0
2017-Oct-19 23:58N 29°44' W 095°08'0 0.0
2017-Oct-19 23:19N 29°44' W 095°08'0 0.0
2017-Oct-19 22:58N 29°44' W 095°08'0 0.0
2017-Oct-19 22:22N 29°44' W 095°08'0 0.0
2017-Oct-19 21:58N 29°44' W 095°08'0 0.0
2017-Oct-19 21:28N 29°44' W 095°08'0 0.0
2017-Oct-19 20:58N 29°44' W 095°08'0 0.0
2017-Oct-19 20:30N 29°44' W 095°08'1 1.8
2017-Oct-19 19:47N 29°44' W 095°07'3 5.5
2017-Oct-19 19:15N 29°44' W 095°03'2 7.4
2017-Oct-19 18:56N 29°43' W 095°01'3 7.4
2017-Oct-19 18:31N 29°41' W 094°59'4 8.5
2017-Oct-19 18:00N 29°37' W 094°57'4 8.5
2017-Oct-19 17:30N 29°33' W 094°54'69 5.6
2017-Oct-19 04:59N 30°03' W 093°42'3 6.9
2017-Oct-19 04:30N 30°04' W 093°39'3 6.0
2017-Oct-19 03:59N 30°04' W 093°35'3 5.8
2017-Oct-19 03:30N 30°04' W 093°32'3 5.9
2017-Oct-19 03:01N 30°04' W 093°28'3 5.9
2017-Oct-19 02:31N 30°04' W 093°25'3 5.6
2017-Oct-19 02:01N 30°04' W 093°22'2 4.0
2017-Oct-19 01:31N 30°05' W 093°20'2 4.1
2017-Oct-19 01:01N 30°05' W 093°18'1 2.5
2017-Oct-19 00:31N 30°05' W 093°17'0 0.4
2017-Oct-19 00:01N 30°04' W 093°16'0 0.1
2017-Oct-18 23:30N 30°04' W 093°16'0 0.1
2017-Oct-18 23:01N 30°04' W 093°16'0 0.0
2017-Oct-18 22:31N 30°04' W 093°16'0 0.0
2017-Oct-18 22:01N 30°04' W 093°16'0 0.0
2017-Oct-18 21:31N 30°04' W 093°16'0 0.0
2017-Oct-18 21:01N 30°04' W 093°16'0 0.0
2017-Oct-18 20:30N 30°04' W 093°16'0 0.0
2017-Oct-18 20:01N 30°04' W 093°16'0 0.0
2017-Oct-18 19:30N 30°04' W 093°16'0 0.0
2017-Oct-18 19:00N 30°04' W 093°16'0 0.0
2017-Oct-18 18:31N 30°04' W 093°16'0 0.0
2017-Oct-18 18:01N 30°04' W 093°16'0 0.0
2017-Oct-18 17:30N 30°04' W 093°16'0 0.0
2017-Oct-18 17:01N 30°04' W 093°16'0 0.0
2017-Oct-18 16:30N 30°04' W 093°16'0 0.0
2017-Oct-18 16:00N 30°04' W 093°16'0 0.0
2017-Oct-18 15:31N 30°04' W 093°16'0 0.0
2017-Oct-18 15:01N 30°04' W 093°16'0 0.0
2017-Oct-18 14:01N 30°04' W 093°16'0 0.2
2017-Oct-18 13:31N 30°04' W 093°16'2 4.5
2017-Oct-18 13:01N 30°02' W 093°15'2 4.1
2017-Oct-18 12:31N 30°01' W 093°14'2 4.5
2017-Oct-18 12:01N 29°59' W 093°12'3 5.4
2017-Oct-18 11:31N 29°57' W 093°10'2 4.9
2017-Oct-18 11:01N 29°56' W 093°08'41 5.2
2017-Oct-18 03:11N 29°51' W 092°21'1 5.3
2017-Oct-18 03:01N 29°51' W 092°20'3 5.2
2017-Oct-18 02:31N 29°49' W 092°17'3 5.7
2017-Oct-18 02:01N 29°48' W 092°15'2 4.3
2017-Oct-18 01:31N 29°47' W 092°12'1 2.9
2017-Oct-18 01:01N 29°47' W 092°11'2 3.7
2017-Oct-18 00:30N 29°47' W 092°09'3 5.5
2017-Oct-18 00:01N 29°48' W 092°06'59 5.5
2017-Oct-17 13:16N 29°37' W 090°59'2 6.4
2017-Oct-17 13:00N 29°35' W 090°58'3 6.4
2017-Oct-17 12:30N 29°33' W 090°55'3 6.6
2017-Oct-17 12:00N 29°32' W 090°51'3 6.5
2017-Oct-17 11:31N 29°32' W 090°48'3 5.4
2017-Oct-17 11:00N 29°33' W 090°45'2 4.7
2017-Oct-17 10:30N 29°35' W 090°43'2 4.2
2017-Oct-17 10:01N 29°37' W 090°41'1 2.4
2017-Oct-17 09:31N 29°36' W 090°40'1 2.4
2017-Oct-17 09:01N 29°36' W 090°39'2 4.7
2017-Oct-17 08:31N 29°35' W 090°36'1 2.3
2017-Oct-17 07:54N 29°34' W 090°35'1 2.6
2017-Oct-17 07:31N 29°34' W 090°34'3 5.5
2017-Oct-17 07:01N 29°34' W 090°31'3 6.1
2017-Oct-17 06:26N 29°33' W 090°27'3 4.9
2017-Oct-17 05:51N 29°34' W 090°23'2 5.3
2017-Oct-17 05:29N 29°35' W 090°22'1 2.5
2017-Oct-17 04:59N 29°36' W 090°22'  
2017-Oct-14 09:42N 29°60' W 090°26'0 0.0
2017-Oct-14 09:30N 29°60' W 090°26'0 0.0
2017-Oct-14 09:01N 29°60' W 090°26'4 0.2
2017-Oct-13 13:48N 29°57' W 090°23'24 2.6
2017-Oct-13 04:38N 29°33' W 090°24'2 7.9
2017-Oct-13 04:21N 29°33' W 090°27'3 7.9
2017-Oct-13 04:01N 29°34' W 090°30'4 7.4
2017-Oct-13 03:30N 29°34' W 090°34'3 5.7
2017-Oct-13 03:00N 29°35' W 090°37'4 7.1
2017-Oct-13 02:30N 29°36' W 090°41'2 3.8
2017-Oct-13 02:00N 29°35' W 090°43'3 5.4
2017-Oct-13 01:30N 29°33' W 090°45'4 7.1
2017-Oct-13 01:00N 29°32' W 090°49'63 6.4
2017-Oct-12 15:08N 29°50' W 091°58'1 7.7
2017-Oct-12 14:58N 29°50' W 091°59'4 7.8
2017-Oct-12 14:31N 29°49' W 092°03'4 7.8
2017-Oct-12 14:01N 29°47' W 092°07'4 7.2
2017-Oct-12 13:30N 29°47' W 092°12'2 3.2
2017-Oct-12 13:00N 29°48' W 092°13'1 1.2
2017-Oct-12 12:30N 29°48' W 092°14'0 0.0
2017-Oct-12 12:01N 29°48' W 092°14'0 0.0
2017-Oct-12 11:31N 29°48' W 092°14'0 0.1
2017-Oct-12 11:00N 29°48' W 092°14'1 1.9
2017-Oct-12 10:31N 29°48' W 092°15'0 0.5
2017-Oct-12 10:00N 29°48' W 092°15'0 0.7
2017-Oct-12 09:31N 29°48' W 092°16'0 0.5
2017-Oct-12 09:01N 29°49' W 092°16'0 0.3
2017-Oct-12 08:30N 29°49' W 092°16'0 0.6
2017-Oct-12 08:01N 29°49' W 092°16'0 1.0
2017-Oct-12 07:31N 29°49' W 092°17'3 5.6
2017-Oct-12 07:01N 29°50' W 092°20'37 6.5
2017-Oct-12 01:17N 29°56' W 093°02'2 6.9
2017-Oct-12 01:01N 29°56' W 093°04'3 6.9
2017-Oct-12 00:30N 29°56' W 093°08'3 6.3
2017-Oct-12 00:01N 29°58' W 093°11'3 6.9
2017-Oct-11 23:30N 30°01' W 093°14'3 6.1
2017-Oct-11 23:00N 30°03' W 093°16'3 5.6
2017-Oct-11 22:31N 30°05' W 093°18'1 2.2
2017-Oct-11 22:01N 30°06' W 093°18'0 0.6
2017-Oct-11 21:31N 30°06' W 093°19'0 0.1
2017-Oct-11 21:00N 30°06' W 093°19'0 0.0
2017-Oct-11 20:31N 30°06' W 093°19'0 0.0
2017-Oct-11 20:00N 30°06' W 093°19'0 0.0
2017-Oct-11 19:30N 30°06' W 093°19'0 0.0
2017-Oct-11 19:00N 30°06' W 093°19'0 0.0
2017-Oct-11 18:31N 30°06' W 093°19'0 0.0
2017-Oct-11 18:00N 30°06' W 093°19'0 0.0
2017-Oct-11 17:31N 30°06' W 093°19'0 0.1
2017-Oct-11 17:01N 30°06' W 093°19'89 4.9
2017-Oct-10 23:03N 29°30' W 094°52'1 9.4
2017-Oct-10 22:58N 29°30' W 094°53'4 9.3
2017-Oct-10 22:30N 29°34' W 094°55'4 9.0
2017-Oct-10 22:01N 29°38' W 094°58'5 9.2
2017-Oct-10 21:30N 29°42' W 095°00'4 8.0
2017-Oct-10 21:00N 29°44' W 095°04'2 3.6
2017-Oct-10 20:26N 29°45' W 095°06'0 0.0
2017-Oct-10 20:00N 29°45' W 095°06'  

Dump ship's entire track history